Time;durP1;ratioP1;P1;durP2;ratioP2;P2;SDS_P1;SDS_P2;PMS_P1;PMS_P2;Temp;Humidity;BMP_temperature;BMP_pressure;BME280_temperature;BME280_humidity;BME280_pressure;Samples;Min_cycle;Max_cycle;Signal;HPM_P1;HPM_P2
2022/03/24 00:37:08;;;;;;;21.15;7.43;;;;;;;;;;3814112;23;20050;31
2022/03/24 00:40:07;;;;;;;27.13;8.05;;;;;;;;;;4923034;29;20099;-94
2022/03/24 00:42:37;;;;;;;22.55;7.95;;;;;;;;;;4912893;29;20119;-93
2022/03/24 00:48:17;;;;;;;21.67;8.43;;;;;;;;;;4921885;29;20055;-94
2022/03/24 00:50:43;;;;;;;17.50;7.95;;;;;;;;;;4935396;29;20032;-95
2022/03/24 00:53:20;;;;;;;25.15;8.50;;;;;;;;;;4882848;29;20113;-94
2022/03/24 00:56:41;;;;;;;;;;;;;;;;;;;;;
2022/03/24 01:02:57;;;;;;;;;;;;;;;;;;;;;
2022/03/24 01:05:28;;;;;;;26.90;8.27;;;;;;;;;;4929331;29;20071;-95
2022/03/24 01:07:58;;;;;;;24.30;8.77;;;;;;;;;;4912552;29;20485;-92
2022/03/24 01:10:38;;;;;;;26.35;8.73;;;;;;;;;;4913685;29;20516;-91
2022/03/24 01:13:09;;;;;;;21.67;8.98;;;;;;;;;;4930216;29;20099;-94
2022/03/24 01:18:29;;;;;;;23.20;9.45;;;;;;;;;;4921193;29;20127;-93
2022/03/24 01:21:16;;;;;;;21.30;9.10;;;;;;;;;;4918636;29;20099;-94
2022/03/24 01:23:53;;;;;;;22.27;8.82;;;;;;;;;;4913876;29;20040;-94
2022/03/24 01:27:39;;;;;;;24.90;8.95;;;;;;;;;;4933243;29;20421;-94
2022/03/24 01:32:31;;;;;;;;;;;;;;;;;;;;;
2022/03/24 01:37:35;;;;;;;26.10;9.38;;;;;;;;;;5219135;23;20074;-93
2022/03/24 01:40:26;;;;;;;19.98;8.38;;;;;;;;;;4966438;28;20086;-94
2022/03/24 01:42:55;;;;;;;21.75;8.70;;;;;;;;;;4985931;28;20041;-93
2022/03/24 01:45:51;;;;;;;23.30;9.68;;;;;;;;;;4976099;28;20027;-94
2022/03/24 01:48:50;;;;;;;17.02;8.02;;;;;;;;;;4978968;28;20031;-92
2022/03/24 01:51:32;;;;;;;18.35;8.50;;;;;;;;;;4951130;28;20038;-94
2022/03/24 01:54:15;;;;;;;19.63;7.90;;;;;;;;;;4930534;29;20052;-94
2022/03/24 01:57:10;;;;;;;18.20;6.85;;;;;;;;;;4977463;28;20057;-92
2022/03/24 02:05:36;;;;;;;15.73;6.25;;;;;;;;;;4970005;28;20089;-93
2022/03/24 02:08:28;;;;;;;14.90;6.40;;;;;;;;;;4966144;29;20027;-93
2022/03/24 02:17:27;;;;;;;17.77;6.83;;;;;;;;;;4927551;29;20410;-92
2022/03/24 02:20:09;;;;;;;19.20;7.63;;;;;;;;;;4915153;29;20051;-95
2022/03/24 02:22:49;;;;;;;20.67;7.82;;;;;;;;;;4932673;29;20028;-93
2022/03/24 02:25:27;;;;;;;15.30;6.47;;;;;;;;;;4924129;29;20036;-94
2022/03/24 02:28:03;;;;;;;18.17;6.32;;;;;;;;;;4929343;28;20513;-94
2022/03/24 02:33:23;;;;;;;19.30;7.05;;;;;;;;;;4976160;28;20058;-93
2022/03/24 02:36:16;;;;;;;17.15;6.85;;;;;;;;;;4968291;28;20101;-95
2022/03/24 02:39:19;;;;;;;;;;;;;;;;;;;;;
2022/03/24 02:44:38;;;;;;;20.85;7.20;;;;;;;;;;4980654;28;20085;-92
2022/03/24 02:47:40;;;;;;;19.42;6.75;;;;;;;;;;4986589;28;20086;-94
2022/03/24 02:50:48;;;;;;;13.90;7.15;;;;;;;;;;4985049;28;20062;-95
2022/03/24 02:53:27;;;;;;;17.45;7.32;;;;;;;;;;4991546;28;20034;-93
2022/03/24 02:56:18;;;;;;;;;;;;;;;;;;;;;
2022/03/24 02:58:49;;;;;;;20.08;7.10;;;;;;;;;;4993152;28;20365;-94
2022/03/24 03:01:18;;;;;;;14.32;6.85;;;;;;;;;;4970202;28;20043;-93
2022/03/24 03:03:58;;;;;;;21.15;7.32;;;;;;;;;;4968074;28;20080;-94
2022/03/24 03:06:40;;;;;;;17.70;7.57;;;;;;;;;;4976445;28;20043;-95
2022/03/24 03:09:18;;;;;;;25.02;7.55;;;;;;;;;;4955589;29;20067;-95
2022/03/24 03:15:00;;;;;;;21.73;6.80;;;;;;;;;;5301026;23;20488;-93
2022/03/24 03:20:48;;;;;;;20.85;7.80;;;;;;;;;;4986507;28;20045;-93
2022/03/24 03:31:50;;;;;;;19.63;7.50;;;;;;;;;;4978138;28;20047;-95
2022/03/24 03:40:54;;;;;;;17.35;6.70;;;;;;;;;;4901227;29;20036;-92
2022/03/24 03:43:23;;;;;;;18.67;7.32;;;;;;;;;;4862984;29;20127;-94
2022/03/24 03:49:27;;;;;;;13.02;6.00;;;;;;;;;;4904995;29;20123;-94
2022/03/24 03:52:12;;;;;;;14.32;6.20;;;;;;;;;;4870406;29;20045;-94
2022/03/24 03:54:56;;;;;;;21.35;7.07;;;;;;;;;;5566604;23;20046;-92
2022/03/24 04:01:14;;;;;;;18.40;6.45;;;;;;;;;;5000139;28;20058;-94
2022/03/24 04:04:26;;;;;;;;;;;;;;;;;;;;;
2022/03/24 04:07:10;;;;;;;21.45;7.53;;;;;;;;;;4993688;28;20027;-93
2022/03/24 04:10:15;;;;;;;18.17;8.23;;;;;;;;;;4929190;29;20020;-93
2022/03/24 04:16:16;;;;;;;;;;;;;;;;;;;;;
2022/03/24 04:19:15;;;;;;;13.88;5.93;;;;;;;;;;4895256;29;20166;-94
2022/03/24 04:22:19;;;;;;;14.43;6.22;;;;;;;;;;4856280;29;20102;-93
2022/03/24 04:59:48;;;;;;;20.40;6.25;;;;;;;;;;6041477;23;20545;-89
2022/03/24 05:02:47;;;;;;;17.90;6.30;;;;;;;;;;4918732;29;20107;-94
2022/03/24 05:05:38;;;;;;;16.98;6.10;;;;;;;;;;4900970;29;20052;-93
2022/03/24 05:08:05;;;;;;;19.10;6.88;;;;;;;;;;4924201;29;20069;-87
2022/03/24 05:10:41;;;;;;;16.35;6.03;;;;;;;;;;4926923;29;20052;-90
2022/03/24 05:13:08;;;;;;;18.88;7.57;;;;;;;;;;4918035;29;20055;-92
2022/03/24 05:15:46;;;;;;;17.95;7.85;;;;;;;;;;4921337;29;20500;-89
2022/03/24 05:18:12;;;;;;;13.60;7.38;;;;;;;;;;4919501;29;20386;-89
2022/03/24 05:20:43;;;;;;;22.02;7.32;;;;;;;;;;4903541;29;20113;-90
2022/03/24 05:23:09;;;;;;;17.02;7.55;;;;;;;;;;4904114;29;20504;-91
2022/03/24 05:25:38;;;;;;;25.40;6.90;;;;;;;;;;4905674;29;20028;-93
2022/03/24 05:28:04;;;;;;;17.70;7.35;;;;;;;;;;4920434;29;20039;-94
2022/03/24 05:30:30;;;;;;;18.77;8.02;;;;;;;;;;4919464;29;20095;-91
2022/03/24 05:32:57;;;;;;;20.65;7.93;;;;;;;;;;4903966;29;20028;-88
2022/03/24 05:35:24;;;;;;;18.25;7.60;;;;;;;;;;4906186;29;20061;-94
2022/03/24 05:37:50;;;;;;;17.42;8.55;;;;;;;;;;4905881;29;20027;-94
2022/03/24 05:40:26;;;;;;;18.05;8.68;;;;;;;;;;4920591;29;20059;-93
2022/03/24 05:42:58;;;;;;;20.02;8.05;;;;;;;;;;4904370;29;20036;-92
2022/03/24 05:45:31;;;;;;;19.90;9.18;;;;;;;;;;4908919;29;20441;-90
2022/03/24 05:47:57;;;;;;;22.20;8.95;;;;;;;;;;4904216;29;20119;-89
2022/03/24 05:50:29;;;;;;;16.15;8.05;;;;;;;;;;4908179;29;20128;-88
2022/03/24 05:52:58;;;;;;;17.05;8.30;;;;;;;;;;4917726;29;20044;-91
2022/03/24 05:55:31;;;;;;;18.67;8.98;;;;;;;;;;4912703;29;20489;-89
2022/03/24 05:57:57;;;;;;;18.57;9.47;;;;;;;;;;4918320;29;20039;-90
2022/03/24 06:00:27;;;;;;;20.52;9.48;;;;;;;;;;4905251;29;20035;-93
2022/03/24 06:02:59;;;;;;;28.15;8.98;;;;;;;;;;4903001;29;20047;-90
2022/03/24 06:05:40;;;;;;;18.25;7.50;;;;;;;;;;4903280;29;20040;-94
2022/03/24 06:08:16;;;;;;;20.60;6.47;;;;;;;;;;4903462;29;20044;-93
2022/03/24 06:21:55;;;;;;;12.50;5.65;;;;;;;;;;4995580;23;20078;-89
2022/03/24 06:24:54;;;;;;;11.00;5.28;;;;;;;;;;5034354;23;20034;-93
2022/03/24 06:27:32;;;;;;;11.07;5.68;;;;;;;;;;4955263;28;20059;-91
2022/03/24 06:41:08;;;;;;;15.90;5.85;;;;;;;;;;5034732;23;20046;-94
2022/03/24 06:43:35;;;;;;;14.20;6.18;;;;;;;;;;4980672;28;20026;-91
2022/03/24 06:46:06;;;;;;;13.15;6.75;;;;;;;;;;4980086;28;20483;-93
2022/03/24 06:48:32;;;;;;;14.52;6.53;;;;;;;;;;4961972;28;20066;-90
2022/03/24 06:51:08;;;;;;;18.80;8.57;;;;;;;;;;4959692;28;20031;-92
2022/03/24 06:53:40;;;;;;;15.27;8.10;;;;;;;;;;4960916;28;20040;-91
2022/03/24 06:56:09;;;;;;;17.52;7.68;;;;;;;;;;4961559;28;20046;-91
2022/03/24 06:58:35;;;;;;;17.75;7.95;;;;;;;;;;4982002;28;20057;-89
2022/03/24 07:01:05;;;;;;;16.20;8.00;;;;;;;;;;4960431;28;20109;-94
2022/03/24 07:03:37;;;;;;;14.90;6.57;;;;;;;;;;4938433;29;20119;-93
2022/03/24 07:06:06;;;;;;;17.70;7.50;;;;;;;;;;4958902;29;20042;-93
2022/03/24 07:09:03;;;;;;;17.13;7.47;;;;;;;;;;4957487;29;20039;-94
2022/03/24 07:11:32;;;;;;;22.35;7.63;;;;;;;;;;4940403;29;20035;-90
2022/03/24 07:17:14;;;;;;;18.58;8.50;;;;;;;;;;5396696;23;20086;-93
2022/03/24 07:19:40;;;;;;;20.10;8.00;;;;;;;;;;4961739;28;20093;-89
2022/03/24 07:22:07;;;;;;;12.73;7.78;;;;;;;;;;4960959;28;20783;-89
2022/03/24 07:24:36;;;;;;;18.58;10.73;;;;;;;;;;4961468;28;20038;-91
2022/03/24 07:27:14;;;;;;;19.45;10.30;;;;;;;;;;4963142;28;20550;-93
2022/03/24 07:30:05;;;;;;;20.65;9.93;;;;;;;;;;4961895;28;20046;-93
2022/03/24 07:32:34;;;;;;;17.80;9.57;;;;;;;;;;4966434;28;20055;-89
2022/03/24 07:35:35;;;;;;;25.88;11.00;;;;;;;;;;4969921;28;20039;-95
2022/03/24 07:47:26;;;;;;;10.38;6.32;;;;;;;;;;5371097;23;20069;-93
2022/03/24 07:49:55;;;;;;;8.77;5.30;;;;;;;;;;4971031;28;20041;-92
2022/03/24 07:52:25;;;;;;;8.65;5.53;;;;;;;;;;4960115;28;20065;-92
2022/03/24 07:55:10;;;;;;;11.35;6.00;;;;;;;;;;4964550;28;20129;-91
2022/03/24 07:58:11;;;;;;;10.82;6.47;;;;;;;;;;4969347;28;20007;-94
2022/03/24 08:00:44;;;;;;;8.43;5.45;;;;;;;;;;4968616;28;20037;-93
2022/03/24 08:09:20;;;;;;;;;;;;;;;;;;;;;
2022/03/24 08:12:09;;;;;;;9.98;6.30;;;;;;;;;;4984004;28;20456;-96
2022/03/24 08:14:35;;;;;;;13.40;5.47;;;;;;;;;;4972894;28;20053;-88
2022/03/24 08:17:35;;;;;;;9.57;5.60;;;;;;;;;;4977869;28;20006;-94
2022/03/24 08:20:23;;;;;;;11.02;5.80;;;;;;;;;;4965641;28;20022;-94
2022/03/24 08:26:45;;;;;;;11.35;5.00;;;;;;;;;;5093228;23;20066;-94
2022/03/24 08:29:21;;;;;;;10.88;5.65;;;;;;;;;;5157722;23;20018;-94
2022/03/24 08:35:38;;;;;;;10.13;5.43;;;;;;;;;;5492599;23;20103;-96
2022/03/24 08:38:10;;;;;;;14.32;5.72;;;;;;;;;;4967638;28;20023;-90
2022/03/24 08:41:04;;;;;;;13.65;5.35;;;;;;;;;;4963161;28;20035;-90
2022/03/24 08:48:42;;;;;;;10.20;5.30;;;;;;;;;;4963430;29;20055;-91
2022/03/24 08:56:27;;;;;;;10.65;6.07;;;;;;;;;;5868456;23;20989;-94
2022/03/24 08:58:53;;;;;;;12.05;5.63;;;;;;;;;;4929443;29;20043;-85
2022/03/24 09:01:50;;;;;;;12.93;6.72;;;;;;;;;;4922962;29;20035;-93
2022/03/24 09:10:12;;;;;;;11.05;5.60;;;;;;;;;;4991482;23;20082;-91
2022/03/24 09:13:13;;;;;;;15.93;6.13;;;;;;;;;;4965861;28;20062;-91
2022/03/24 09:15:50;;;;;;;12.20;6.28;;;;;;;;;;4967241;28;20511;-92
2022/03/24 09:18:28;;;;;;;11.25;6.05;;;;;;;;;;4963336;28;20031;-95
2022/03/24 09:21:04;;;;;;;12.63;6.47;;;;;;;;;;4964268;28;20072;-91
2022/03/24 09:23:31;;;;;;;10.75;5.75;;;;;;;;;;4969578;28;20566;-88
2022/03/24 09:25:57;;;;;;;10.88;5.95;;;;;;;;;;4963052;28;20027;-87
2022/03/24 09:28:24;;;;;;;11.13;5.80;;;;;;;;;;4961304;28;20564;-85
2022/03/24 09:30:51;;;;;;;14.35;5.57;;;;;;;;;;4986575;28;20460;-85
2022/03/24 09:33:20;;;;;;;11.38;6.68;;;;;;;;;;4993082;28;20091;-91
2022/03/24 09:35:56;;;;;;;10.30;5.78;;;;;;;;;;4968803;28;20115;-93
2022/03/24 09:46:45;;;;;;;17.05;6.00;;;;;;;;;;5120422;23;20066;-93
2022/03/24 09:49:22;;;;;;;8.75;5.85;;;;;;;;;;4952008;28;20035;-94
2022/03/24 09:51:48;;;;;;;9.30;6.05;;;;;;;;;;4966277;28;20061;-94
2022/03/24 09:57:46;;;;;;;11.13;6.78;;;;;;;;;;5132055;23;20045;-92
2022/03/24 10:03:11;;;;;;;22.40;6.30;;;;;;;;;;5075052;23;20055;-94
2022/03/24 10:06:16;;;;;;;11.23;6.18;;;;;;;;;;4974136;28;20027;-91
2022/03/24 10:09:18;;;;;;;12.65;5.90;;;;;;;;;;4923625;29;20501;-92
2022/03/24 10:11:48;;;;;;;8.52;5.60;;;;;;;;;;4919396;29;20043;-93
2022/03/24 10:14:27;;;;;;;7.80;5.53;;;;;;;;;;4955443;28;20070;-96
2022/03/24 10:17:12;;;;;;;11.15;6.68;;;;;;;;;;4964437;28;20023;-91
2022/03/24 10:20:00;;;;;;;10.77;6.13;;;;;;;;;;4966014;28;20353;-91
2022/03/24 10:22:30;;;;;;;12.63;6.40;;;;;;;;;;4964265;28;20120;-90
2022/03/24 10:25:26;;;;;;;12.82;6.20;;;;;;;;;;4959584;29;20110;-91
2022/03/24 10:28:27;;;;;;;12.20;6.57;;;;;;;;;;4888186;29;20064;-91
2022/03/24 10:33:59;;;;;;;15.90;7.00;;;;;;;;;;4920065;23;20761;-90
2022/03/24 10:36:56;;;;;;;11.20;6.32;;;;;;;;;;4964723;28;20043;-91
2022/03/24 10:39:54;;;;;;;9.60;6.17;;;;;;;;;;4963058;28;20054;-91
2022/03/24 10:42:38;;;;;;;13.48;6.35;;;;;;;;;;4968785;28;20262;-94
2022/03/24 10:45:32;;;;;;;10.75;6.20;;;;;;;;;;5172325;23;20037;-93
2022/03/24 10:48:20;;;;;;;8.80;5.82;;;;;;;;;;4960542;28;20093;-92
2022/03/24 10:51:05;;;;;;;10.73;6.40;;;;;;;;;;4962310;28;20031;-92
2022/03/24 10:53:43;;;;;;;13.88;6.88;;;;;;;;;;4960318;28;20067;-93
2022/03/24 10:56:29;;;;;;;12.73;7.05;;;;;;;;;;4960440;28;20043;-93
2022/03/24 10:59:03;;;;;;;15.30;6.80;;;;;;;;;;4959701;28;20110;-92
2022/03/24 11:01:38;;;;;;;13.45;6.40;;;;;;;;;;4960795;28;20034;-93
2022/03/24 11:04:34;;;;;;;9.40;5.85;;;;;;;;;;4966897;28;20023;-93
2022/03/24 11:07:15;;;;;;;11.50;6.60;;;;;;;;;;4973708;28;20035;-93
2022/03/24 11:10:11;;;;;;;10.00;5.95;;;;;;;;;;4975910;28;20014;-96
2022/03/24 11:13:00;;;;;;;11.23;5.60;;;;;;;;;;4936571;29;20054;-93
2022/03/24 11:15:37;;;;;;;12.50;5.85;;;;;;;;;;4981083;23;20054;-92
2022/03/24 11:21:49;;;;;;;10.00;5.95;;;;;;;;;;4993347;23;20054;-90
2022/03/24 11:27:03;;;;;;;9.88;5.85;;;;;;;;;;4978383;28;20507;-96
2022/03/24 11:29:58;;;;;;;14.30;6.40;;;;;;;;;;4990713;28;20035;-90
2022/03/24 11:32:45;;;;;;;12.27;6.55;;;;;;;;;;4915515;29;20119;-93
2022/03/24 11:38:14;;;;;;;;;;;;;;;;;;4968106;28;20074;-95
2022/03/24 11:43:59;;;;;;;;;;;;;;;;;;4991116;28;20498;-89
2022/03/24 11:46:40;;;;;;;13.10;7.10;;;;;;;;;;4983115;28;19894;-93
2022/03/24 11:52:12;;;;;;;14.65;7.57;;;;;;;;;;4985705;28;20069;-94
2022/03/24 11:55:00;;;;;;;15.55;8.02;;;;;;;;;;4984099;28;20030;-90
2022/03/24 11:57:38;;;;;;;20.38;8.50;;;;;;;;;;4952355;29;20065;-93
2022/03/24 12:00:20;;;;;;;15.90;8.80;;;;;;;;;;4948990;29;20027;-95
2022/03/24 12:02:49;;;;;;;19.83;9.32;;;;;;;;;;4946371;29;20028;-94
2022/03/24 12:05:16;;;;;;;21.30;8.45;;;;;;;;;;4986496;28;20098;-87
2022/03/24 12:08:07;;;;;;;18.83;8.93;;;;;;;;;;4977839;28;20050;-91
2022/03/24 12:10:33;;;;;;;20.98;9.63;;;;;;;;;;4976069;23;20054;-89
2022/03/24 12:13:19;;;;;;;22.35;9.93;;;;;;;;;;4956373;29;20432;-90
2022/03/24 12:15:45;;;;;;;21.02;10.10;;;;;;;;;;4959561;29;20055;-92
2022/03/24 12:18:20;;;;;;;21.85;9.95;;;;;;;;;;4958802;29;20027;-95
2022/03/24 12:20:50;;;;;;;23.45;10.57;;;;;;;;;;4960163;28;20071;-92
2022/03/24 12:23:17;;;;;;;20.83;10.40;;;;;;;;;;4963886;28;20027;-90
2022/03/24 12:25:50;;;;;;;25.45;9.95;;;;;;;;;;4973550;29;20030;-88
2022/03/24 12:31:03;;;;;;;20.92;9.63;;;;;;;;;;5004164;23;20057;-89
2022/03/24 12:39:59;;;;;;;17.63;8.00;;;;;;;;;;4995758;23;20057;-88
2022/03/24 12:45:56;;;;;;;11.82;6.18;;;;;;;;;;4981876;28;20094;-89
2022/03/24 12:48:37;;;;;;;13.98;5.90;;;;;;;;;;4962600;28;20403;-89
2022/03/24 12:51:18;;;;;;;15.15;7.32;;;;;;;;;;4972687;28;20034;-93
2022/03/24 12:53:55;;;;;;;16.55;7.30;;;;;;;;;;4970041;28;20022;-91
2022/03/24 12:56:30;;;;;;;15.35;7.25;;;;;;;;;;4962055;28;20173;-93
2022/03/24 13:01:36;;;;;;;14.57;6.55;;;;;;;;;;5057403;23;20046;-91
2022/03/24 13:04:03;;;;;;;17.17;7.45;;;;;;;;;;4966714;28;20041;-91
2022/03/24 13:06:49;;;;;;;12.57;6.82;;;;;;;;;;4963385;28;20472;-91
2022/03/24 13:09:30;;;;;;;20.40;7.53;;;;;;;;;;5034870;23;20051;-93
2022/03/24 13:12:02;;;;;;;20.55;7.90;;;;;;;;;;4973568;28;20034;-92
2022/03/24 13:14:52;;;;;;;18.98;7.90;;;;;;;;;;4977440;28;20102;-92
2022/03/24 13:17:59;;;;;;;16.45;8.07;;;;;;;;;;4922821;28;20035;-94
2022/03/24 13:21:07;;;;;;;;;;;;;;;;;;;;;
2022/03/24 13:27:13;;;;;;;18.30;7.53;;;;;;;;;;4876891;29;20032;-93
2022/03/24 13:30:11;;;;;;;17.85;8.07;;;;;;;;;;4873763;29;20033;-92
2022/03/24 13:41:47;;;;;;;19.20;8.68;;;;;;;;;;4840408;29;20096;-90
2022/03/24 13:47:49;;;;;;;19.50;9.20;;;;;;;;;;4814008;29;20128;-90
2022/03/24 13:50:22;;;;;;;17.73;8.48;;;;;;;;;;5092907;23;20058;-96
2022/03/24 13:52:56;;;;;;;26.70;8.68;;;;;;;;;;4946224;29;20042;-93
2022/03/24 13:55:49;;;;;;;20.83;9.10;;;;;;;;;;4944106;29;20043;-89
2022/03/24 13:58:35;;;;;;;18.35;8.20;;;;;;;;;;4960959;29;20062;-91
2022/03/24 14:01:30;;;;;;;23.38;10.20;;;;;;;;;;4943177;29;20119;-90
2022/03/24 14:03:57;;;;;;;18.63;8.15;;;;;;;;;;4930380;29;20064;-91
2022/03/24 14:06:26;;;;;;;20.65;9.00;;;;;;;;;;4930280;29;20532;-93
2022/03/24 14:09:04;;;;;;;19.85;9.68;;;;;;;;;;4926542;29;20022;-92
2022/03/24 14:15:04;;;;;;;24.02;8.02;;;;;;;;;;4954968;29;20098;-90
2022/03/24 14:17:58;;;;;;;26.20;8.32;;;;;;;;;;4877179;29;20069;-90
2022/03/24 14:20:39;;;;;;;18.73;9.02;;;;;;;;;;4861374;29;20503;-95
2022/03/24 14:26:36;;;;;;;23.10;10.00;;;;;;;;;;4943480;29;20043;-95
2022/03/24 14:35:29;;;;;;;15.43;7.43;;;;;;;;;;4920800;29;20067;-90
2022/03/24 14:38:24;;;;;;;16.27;7.43;;;;;;;;;;4911316;29;20051;-89
2022/03/24 14:41:19;;;;;;;16.65;7.25;;;;;;;;;;4897579;29;20032;-90
2022/03/24 14:43:46;;;;;;;17.80;6.57;;;;;;;;;;4906130;29;20029;-89
2022/03/24 14:46:22;;;;;;;17.75;6.57;;;;;;;;;;4911399;29;20024;-92
2022/03/24 14:49:01;;;;;;;17.20;6.72;;;;;;;;;;4924891;23;20018;-92
2022/03/24 14:51:37;;;;;;;17.52;7.57;;;;;;;;;;4962279;29;20062;-93
2022/03/24 14:56:39;;;;;;;19.33;6.97;;;;;;;;;;5026248;23;20063;-92
2022/03/24 14:59:12;;;;;;;17.58;6.65;;;;;;;;;;4968436;28;20038;-91
2022/03/24 15:17:09;;;;;;;15.95;8.15;;;;;;;;;;4962401;29;20102;-90
2022/03/24 15:19:43;;;;;;;18.48;8.93;;;;;;;;;;4945449;29;20118;-92
2022/03/24 15:22:10;;;;;;;;;;;;;;;;;;4946724;29;20042;-90
2022/03/24 15:33:20;;;;;;;26.42;10.68;;;;;;;;;;4972791;29;20035;-91
2022/03/24 15:36:14;;;;;;;23.52;11.07;;;;;;;;;;4952567;29;20131;-93
2022/03/24 15:44:36;;;;;;;20.93;10.87;;;;;;;;;;4982288;28;20487;-96
2022/03/24 15:47:17;;;;;;;29.42;11.95;;;;;;;;;;4964940;28;20031;-95
2022/03/24 15:50:12;;;;;;;21.77;9.60;;;;;;;;;;4999489;23;20055;-93
2022/03/24 15:55:34;;;;;;;24.00;11.65;;;;;;;;;;5219332;23;19965;-95
2022/03/24 15:58:34;;;;;;;23.93;11.93;;;;;;;;;;4966717;28;20026;-95
2022/03/24 16:01:03;;;;;;;25.95;12.70;;;;;;;;;;4966221;29;20047;-94
2022/03/24 16:03:30;;;;;;;29.65;12.73;;;;;;;;;;4950636;29;20043;-91
2022/03/24 16:09:06;;;;;;;28.65;12.70;;;;;;;;;;4963311;29;20066;-94
2022/03/24 16:11:51;;;;;;;23.38;12.18;;;;;;;;;;4904259;29;20065;-95
2022/03/24 16:14:36;;;;;;;;;;;;;;;;;;;;;
2022/03/24 16:17:19;;;;;;;25.40;12.95;;;;;;;;;;4909143;29;20072;-91
2022/03/24 16:19:50;;;;;;;29.75;12.85;;;;;;;;;;4896274;29;20046;-92
2022/03/24 16:22:28;;;;;;;23.73;12.32;;;;;;;;;;4883442;29;20048;-94
2022/03/24 16:24:54;;;;;;;24.35;12.07;;;;;;;;;;4940335;23;20054;-92
2022/03/24 16:27:26;;;;;;;27.35;12.65;;;;;;;;;;4962760;28;20027;-95
2022/03/24 16:30:19;;;;;;;25.38;12.23;;;;;;;;;;4963157;28;20480;-95
2022/03/24 16:35:58;;;;;;;25.65;12.52;;;;;;;;;;4997750;23;20089;-91
2022/03/24 16:46:17;;;;;;;30.77;13.35;;;;;;;;;;5200876;23;20042;-90
2022/03/24 16:51:54;;;;;;;29.52;12.50;;;;;;;;;;4947025;29;20476;-92
2022/03/24 17:00:31;;;;;;;36.50;14.97;;;;;;;;;;5377866;23;20058;-93
2022/03/24 17:03:06;;;;;;;30.02;14.38;;;;;;;;;;5029899;23;20266;-89
2022/03/24 17:05:43;;;;;;;31.17;16.30;;;;;;;;;;4958513;28;20035;-89
2022/03/24 17:08:48;;;;;;;34.60;15.50;;;;;;;;;;4947829;29;20491;-93
2022/03/24 17:11:20;;;;;;;34.10;16.77;;;;;;;;;;4943484;28;20039;-92
2022/03/24 17:13:49;;;;;;;34.38;16.65;;;;;;;;;;4963154;28;20540;-88
2022/03/24 17:16:15;;;;;;;30.25;15.88;;;;;;;;;;4965168;28;20042;-90
2022/03/24 17:18:49;;;;;;;32.35;14.25;;;;;;;;;;4947207;28;20122;-92
2022/03/24 17:21:28;;;;;;;32.13;14.52;;;;;;;;;;4964456;28;20109;-90
2022/03/24 17:24:13;;;;;;;;;;;;;;;;;;;;;
2022/03/24 17:30:24;;;;;;;27.23;14.43;;;;;;;;;;4986835;28;20046;-96
2022/03/24 17:41:53;;;;;;;45.60;18.10;;;;;;;;;;4849127;29;20038;-94
2022/03/24 17:44:26;;;;;;;38.35;16.73;;;;;;;;;;4868866;29;20045;-93
2022/03/24 17:47:12;;;;;;;40.25;17.85;;;;;;;;;;4934608;28;20030;-94
2022/03/24 17:49:38;;;;;;;50.70;18.90;;;;;;;;;;4964191;28;20033;-91
2022/03/24 17:52:22;;;;;;;42.70;17.35;;;;;;;;;;4966919;28;20062;-93
2022/03/24 17:54:48;;;;;;;52.17;19.17;;;;;;;;;;4969680;28;20053;-95
2022/03/24 17:57:15;;;;;;;47.60;19.45;;;;;;;;;;4964752;28;20027;-94
2022/03/24 18:05:40;;;;;;;45.65;20.75;;;;;;;;;;5089349;23;20094;-93
2022/03/24 18:14:18;;;;;;;51.03;20.40;;;;;;;;;;4954000;28;20038;-94
2022/03/24 18:19:42;;;;;;;49.47;18.45;;;;;;;;;;5119584;23;20065;-93
2022/03/24 18:22:31;;;;;;;43.35;19.27;;;;;;;;;;4978874;28;20046;-94
2022/03/24 18:25:17;;;;;;;39.78;17.05;;;;;;;;;;4986161;28;20050;-96
2022/03/24 18:27:43;;;;;;;45.42;19.02;;;;;;;;;;4972428;28;20026;-94
2022/03/24 18:30:11;;;;;;;43.33;17.30;;;;;;;;;;4976209;28;20038;-92
2022/03/24 18:32:37;;;;;;;42.78;17.65;;;;;;;;;;4984690;28;20026;-92
2022/03/24 18:35:05;;;;;;;50.05;19.23;;;;;;;;;;4987611;28;20054;-94
2022/03/24 18:37:33;;;;;;;39.22;17.30;;;;;;;;;;4988535;28;20479;-96
2022/03/24 18:39:59;;;;;;;40.50;17.60;;;;;;;;;;4986974;28;20026;-93
2022/03/24 18:42:26;;;;;;;42.97;19.63;;;;;;;;;;4986987;28;20030;-93
2022/03/24 18:45:08;;;;;;;50.65;18.05;;;;;;;;;;4985557;28;20029;-95
2022/03/24 18:47:35;;;;;;;49.92;20.95;;;;;;;;;;4969889;28;20033;-93
2022/03/24 18:50:05;;;;;;;50.17;20.00;;;;;;;;;;4986528;28;20031;-95
2022/03/24 18:52:31;;;;;;;49.72;21.83;;;;;;;;;;4963668;28;20049;-94
2022/03/24 18:55:08;;;;;;;44.20;18.25;;;;;;;;;;4947410;28;20043;-93
2022/03/24 19:00:44;;;;;;;43.07;16.70;;;;;;;;;;4991274;28;20033;-92
2022/03/24 19:03:10;;;;;;;40.72;18.38;;;;;;;;;;4970898;28;20026;-93
2022/03/24 19:05:39;;;;;;;44.97;19.75;;;;;;;;;;4965539;28;20090;-94
2022/03/24 19:08:18;;;;;;;42.85;17.63;;;;;;;;;;4961971;28;20038;-92
2022/03/24 19:11:07;;;;;;;35.13;16.95;;;;;;;;;;4966675;28;20098;-94
2022/03/24 19:13:39;;;;;;;40.35;15.98;;;;;;;;;;4961351;28;20037;-91
2022/03/24 19:16:10;;;;;;;40.38;15.73;;;;;;;;;;4963105;28;20039;-91
2022/03/24 19:24:10;;;;;;;44.05;18.45;;;;;;;;;;4965803;28;20080;-94
2022/03/24 19:26:37;;;;;;;44.38;18.23;;;;;;;;;;5092258;23;20043;-93
2022/03/24 19:29:04;;;;;;;40.97;19.17;;;;;;;;;;4955291;29;20055;-95
2022/03/24 19:31:33;;;;;;;37.45;17.50;;;;;;;;;;4954202;29;20099;-95
2022/03/24 19:33:59;;;;;;;38.22;16.95;;;;;;;;;;4946336;29;20031;-93
2022/03/24 19:36:26;;;;;;;35.30;16.48;;;;;;;;;;5163040;23;20045;-94
2022/03/24 19:38:52;;;;;;;38.88;16.58;;;;;;;;;;5305981;23;20018;-93
2022/03/24 19:41:39;;;;;;;35.63;15.60;;;;;;;;;;5051809;23;20050;-93
2022/03/24 19:44:07;;;;;;;30.90;14.32;;;;;;;;;;4977210;28;20480;-94
2022/03/24 19:46:51;;;;;;;43.42;15.85;;;;;;;;;;4964670;28;20026;-95
2022/03/24 19:50:02;;;;;;;36.60;15.77;;;;;;;;;;4972272;28;20061;-96
2022/03/24 19:55:32;;;;;;;37.07;15.03;;;;;;;;;;4986745;28;20139;-93
2022/03/24 19:58:18;;;;;;;31.67;15.13;;;;;;;;;;4992195;28;20016;-92
2022/03/24 20:00:45;;;;;;;32.53;15.40;;;;;;;;;;4985734;28;20046;-95
2022/03/24 20:03:27;;;;;;;32.20;14.18;;;;;;;;;;4994010;23;20059;-94
2022/03/24 20:05:58;;;;;;;34.38;14.75;;;;;;;;;;4933668;29;20477;-94
2022/03/24 20:08:24;;;;;;;31.45;14.75;;;;;;;;;;4949794;29;20027;-96
2022/03/24 20:11:15;;;;;;;38.80;14.65;;;;;;;;;;4975010;28;20043;-93
2022/03/24 20:13:50;;;;;;;40.20;14.55;;;;;;;;;;4950960;28;20114;-91
2022/03/24 20:16:18;;;;;;;34.50;14.40;;;;;;;;;;4969943;28;20038;-93
2022/03/24 20:19:21;;;;;;;31.88;14.90;;;;;;;;;;4976309;28;20042;-91
2022/03/24 20:22:07;;;;;;;37.00;13.85;;;;;;;;;;4973721;28;20071;-91
2022/03/24 20:24:34;;;;;;;41.92;14.68;;;;;;;;;;4950315;29;20027;-94
2022/03/24 20:27:05;;;;;;;37.38;14.82;;;;;;;;;;4946672;29;20126;-94
2022/03/24 20:29:40;;;;;;;33.05;14.50;;;;;;;;;;4949467;29;20160;-94
2022/03/24 20:32:15;;;;;;;31.38;13.68;;;;;;;;;;4955771;29;20015;-96
2022/03/24 20:35:20;;;;;;;33.08;13.95;;;;;;;;;;4955316;29;20055;-95
2022/03/24 20:38:14;;;;;;;32.22;13.00;;;;;;;;;;4911453;29;20173;-96
2022/03/24 20:41:09;;;;;;;;;;;;;;;;;;;;;
2022/03/24 20:43:36;;;;;;;33.20;14.13;;;;;;;;;;4909137;29;20107;-92
2022/03/24 20:46:02;;;;;;;32.83;13.80;;;;;;;;;;4889372;29;20055;-93
2022/03/24 20:48:28;;;;;;;34.45;13.77;;;;;;;;;;4927484;29;20058;-93
2022/03/24 20:50:54;;;;;;;33.25;14.15;;;;;;;;;;4952719;29;20051;-92
2022/03/24 20:53:21;;;;;;;33.28;14.88;;;;;;;;;;4950564;29;20118;-92
2022/03/24 20:55:47;;;;;;;33.53;13.80;;;;;;;;;;4950068;29;20042;-94
2022/03/24 20:58:13;;;;;;;35.47;14.43;;;;;;;;;;4959239;29;20028;-94
2022/03/24 21:00:40;;;;;;;35.17;14.90;;;;;;;;;;4950457;29;20042;-92
2022/03/24 21:03:09;;;;;;;37.50;14.30;;;;;;;;;;4951682;28;20459;-94
2022/03/24 21:05:42;;;;;;;32.30;14.52;;;;;;;;;;4947527;29;20617;-95
2022/03/24 21:08:09;;;;;;;34.33;14.55;;;;;;;;;;4945533;29;20027;-92
2022/03/24 21:10:45;;;;;;;36.60;14.60;;;;;;;;;;4955284;29;20106;-94
2022/03/24 21:13:14;;;;;;;44.67;15.27;;;;;;;;;;4924387;29;20067;-94
2022/03/24 21:16:05;;;;;;;35.70;14.90;;;;;;;;;;4946802;29;20035;-93
2022/03/24 21:23:42;;;;;;;35.38;15.23;;;;;;;;;;5422991;23;20059;-93
2022/03/24 21:26:08;;;;;;;39.72;14.77;;;;;;;;;;4978459;28;20035;-93
2022/03/24 21:28:56;;;;;;;37.95;16.52;;;;;;;;;;4975557;28;20431;-93
2022/03/24 21:31:29;;;;;;;41.83;15.57;;;;;;;;;;4964860;28;20093;-92
2022/03/24 21:34:24;;;;;;;38.10;14.30;;;;;;;;;;4964920;28;20089;-94
2022/03/24 21:36:53;;;;;;;33.10;14.52;;;;;;;;;;4939015;28;20055;-93
2022/03/24 21:39:24;;;;;;;32.05;14.75;;;;;;;;;;4982452;23;20080;-93
2022/03/24 21:41:52;;;;;;;31.23;14.65;;;;;;;;;;4961377;28;20039;-94
2022/03/24 21:44:19;;;;;;;34.42;14.82;;;;;;;;;;4946367;29;20027;-93
2022/03/24 21:46:59;;;;;;;35.50;14.75;;;;;;;;;;4946823;29;20050;-95
2022/03/24 21:49:32;;;;;;;39.92;16.27;;;;;;;;;;4942482;29;20037;-94
2022/03/24 21:52:20;;;;;;;33.55;15.10;;;;;;;;;;4947697;29;20023;-94
2022/03/24 21:55:29;;;;;;;33.42;14.82;;;;;;;;;;4947604;29;20042;-94
2022/03/24 21:58:16;;;;;;;36.63;14.80;;;;;;;;;;4933334;29;20020;-95
2022/03/24 22:43:39;;;;;;;32.67;13.52;;;;;;;;;;4984224;28;20037;-93